createdAt,value
2023-04-01T00:05:51.204Z,64.53
2023-04-01T00:11:17.112Z,64.62
2023-04-01T00:16:41.674Z,64.64
2023-04-01T00:22:05.777Z,64.82
2023-04-01T00:27:29.651Z,64.63
2023-04-01T00:32:55.207Z,64.55
2023-04-01T00:38:20.058Z,64.61
2023-04-01T00:43:46.222Z,64.55
2023-04-01T00:49:11.018Z,64.40
2023-04-01T00:54:36.355Z,64.31
2023-04-01T01:00:01.124Z,64.46
2023-04-01T01:05:48.350Z,64.48
2023-04-01T01:11:15.724Z,64.16
2023-04-01T01:16:46.469Z,64.07
2023-04-01T01:22:31.278Z,64.09
2023-04-01T01:28:37.289Z,64.07
2023-04-01T01:34:16.667Z,64.17
2023-04-01T01:39:45.188Z,64.43
2023-04-01T01:45:13.740Z,65.01
2023-04-01T01:50:39.070Z,65.29
2023-04-01T01:56:04.192Z,65.34
2023-04-01T02:01:36.977Z,65.54
2023-04-01T02:07:17.554Z,65.71
2023-04-01T02:12:48.126Z,66.06
2023-04-01T02:18:14.603Z,66.42
2023-04-01T02:23:39.669Z,66.83
2023-04-01T02:29:07.022Z,66.80
2023-04-01T02:34:31.053Z,66.84
2023-04-01T02:40:01.797Z,67.16
2023-04-01T02:45:27.061Z,67.33
2023-04-01T02:50:51.417Z,67.42
2023-04-01T02:56:16.212Z,67.26
2023-04-01T03:01:40.116Z,67.21
2023-04-01T03:07:04.086Z,67.29
2023-04-01T03:12:28.835Z,67.00
2023-04-01T03:17:53.619Z,66.84
2023-04-01T03:23:20.639Z,66.89
2023-04-01T03:28:44.646Z,66.90
2023-04-01T03:34:09.188Z,66.94
2023-04-01T03:39:33.509Z,67.14
2023-04-01T03:44:57.630Z,67.11
2023-04-01T03:50:22.546Z,67.11
2023-04-01T03:55:48.003Z,67.26
2023-04-01T04:01:22.181Z,67.80
2023-04-01T04:06:49.314Z,68.14
2023-04-01T04:12:14.032Z,68.04
2023-04-01T04:17:38.220Z,68.05
2023-04-01T04:23:02.832Z,68.34
2023-04-01T04:28:28.501Z,68.50
2023-04-01T04:33:54.444Z,68.83
2023-04-01T04:39:18.538Z,68.95
2023-04-01T04:44:42.879Z,68.89
2023-04-01T04:50:07.825Z,68.65
2023-04-01T04:55:34.669Z,68.68
2023-04-01T05:01:18.800Z,68.69
2023-04-01T05:06:46.060Z,68.42
2023-04-01T05:12:11.218Z,68.22
2023-04-01T05:17:55.421Z,68.31
2023-04-01T05:23:20.182Z,68.55
2023-04-01T05:28:44.710Z,68.57
2023-04-01T05:34:09.357Z,68.57
2023-04-01T05:39:33.353Z,68.66
2023-04-01T05:44:58.356Z,68.59
2023-04-01T05:50:48.423Z,68.67
2023-04-01T05:56:13.544Z,68.68
2023-04-01T06:01:40.734Z,68.51
2023-04-01T06:07:19.422Z,68.27
2023-04-01T06:12:54.699Z,68.22
2023-04-01T06:18:37.381Z,68.19
2023-04-01T06:24:38.810Z,67.92
2023-04-01T06:30:26.972Z,68.09
2023-04-01T06:36:14.457Z,67.85
2023-04-01T06:41:51.601Z,67.81
2023-04-01T06:47:31.017Z,67.62
2023-04-01T06:53:38.096Z,67.47
2023-04-01T06:59:41.863Z,67.33
2023-04-01T07:05:06.755Z,67.02
2023-04-01T07:10:47.960Z,67.04
2023-04-01T07:17:03.275Z,67.05
2023-04-01T07:22:45.924Z,67.06
2023-04-01T07:28:35.530Z,67.00
2023-04-01T07:34:51.328Z,66.79
2023-04-01T07:40:40.597Z,66.63
2023-04-01T07:46:38.948Z,66.34
2023-04-01T07:52:37.194Z,66.13
2023-04-01T07:58:18.824Z,65.97
2023-04-01T08:03:49.364Z,65.71
2023-04-01T08:09:29.112Z,65.70
2023-04-01T08:15:28.815Z,65.66
2023-04-01T08:21:03.989Z,65.74
2023-04-01T08:26:38.613Z,65.36
2023-04-01T08:32:18.366Z,64.75
2023-04-01T08:37:46.961Z,64.21
2023-04-01T08:43:38.166Z,64.44
2023-04-01T08:49:23.755Z,64.00
2023-04-01T08:55:04.595Z,63.40
2023-04-01T09:00:57.617Z,62.48
2023-04-01T09:06:39.565Z,62.77
2023-04-01T09:12:49.728Z,62.86
2023-04-01T09:18:25.362Z,62.43
2023-04-01T09:24:13.130Z,62.11
2023-04-01T09:29:49.654Z,61.74
2023-04-01T09:35:29.617Z,61.27
2023-04-01T09:41:23.376Z,60.86
2023-04-01T09:47:11.306Z,60.30
2023-04-01T09:53:05.355Z,60.15
2023-04-01T09:58:55.905Z,59.37
2023-04-01T10:04:57.596Z,62.18
2023-04-01T10:10:43.867Z,61.12
2023-04-01T10:16:27.591Z,59.12
2023-04-01T10:22:25.093Z,62.78
2023-04-01T10:28:16.500Z,60.69
2023-04-01T10:35:18.166Z,60.59
2023-04-01T10:41:57.062Z,62.12
2023-04-01T10:48:25.919Z,59.68
2023-04-01T10:54:44.442Z,60.32
2023-04-01T11:01:09.304Z,62.76
2023-04-01T11:07:44.014Z,60.07
2023-04-01T11:13:29.556Z,59.58
2023-04-01T11:19:12.404Z,63.02
2023-04-01T11:25:00.997Z,61.02
2023-04-01T11:31:04.489Z,59.47
2023-04-01T11:37:01.352Z,62.16
2023-04-01T11:42:51.710Z,61.11
2023-04-01T11:48:52.221Z,59.18
2023-04-01T11:54:52.043Z,62.41
2023-04-01T12:00:47.013Z,60.60
2023-04-01T12:06:44.977Z,58.62
2023-04-01T12:12:22.340Z,62.28
2023-04-01T12:18:25.013Z,60.82
2023-04-01T12:24:35.130Z,57.47
2023-04-01T12:30:23.390Z,59.25
2023-04-01T12:35:57.367Z,60.73
2023-04-01T12:41:46.247Z,59.80
2023-04-01T12:47:34.665Z,57.56
2023-04-01T12:53:28.742Z,58.73
2023-04-01T12:59:19.317Z,60.08
2023-04-01T13:05:12.211Z,60.23
2023-04-01T13:10:59.440Z,60.20
2023-04-01T13:16:58.767Z,59.66
2023-04-01T13:22:47.192Z,59.45
2023-04-01T13:28:22.570Z,58.82
2023-04-01T13:34:01.691Z,58.66
2023-04-01T13:39:50.109Z,58.50
2023-04-01T13:45:27.865Z,58.16
2023-04-01T13:51:03.775Z,56.56
2023-04-01T13:57:20.479Z,55.37
2023-04-01T14:02:55.884Z,54.40
2023-04-01T14:08:53.269Z,55.68
2023-04-01T14:14:25.702Z,57.11
2023-04-01T14:20:11.814Z,58.14
2023-04-01T14:25:56.271Z,60.03
2023-04-01T14:31:33.063Z,61.66
2023-04-01T14:37:20.361Z,70.52
2023-04-01T14:43:17.167Z,68.53
2023-04-01T14:48:45.025Z,61.82
2023-04-01T14:54:15.291Z,56.17
2023-04-01T15:00:07.902Z,55.77
2023-04-01T15:05:53.897Z,58.61
2023-04-01T15:11:53.921Z,61.39
2023-04-01T15:17:31.400Z,68.54
2023-04-01T15:23:22.651Z,62.22
2023-04-01T15:29:05.502Z,61.75
2023-04-01T15:35:07.054Z,57.15
2023-04-01T15:40:37.701Z,55.24
2023-04-01T15:46:40.245Z,58.40
2023-04-01T15:52:16.871Z,67.31
2023-04-01T15:57:53.789Z,68.68
2023-04-01T16:03:31.361Z,66.31
2023-04-01T16:09:04.140Z,65.35
2023-04-01T16:14:46.473Z,63.05
2023-04-01T16:20:11.991Z,61.84
2023-04-01T16:25:55.128Z,63.31
2023-04-01T16:31:47.801Z,62.51
2023-04-01T16:37:23.614Z,61.69
2023-04-01T16:43:07.438Z,60.79
2023-04-01T16:48:54.421Z,54.27
2023-04-01T16:54:40.651Z,52.81
2023-04-01T17:00:29.361Z,58.47
2023-04-01T17:06:29.387Z,66.98
2023-04-01T17:12:32.437Z,66.43
2023-04-01T17:17:56.659Z,64.78
2023-04-01T17:23:54.611Z,64.23
2023-04-01T17:29:57.938Z,63.49
2023-04-01T17:35:36.432Z,62.21
2023-04-01T17:41:18.989Z,60.79
2023-04-01T17:46:47.292Z,54.54
2023-04-01T17:52:21.295Z,52.72
2023-04-01T17:58:00.197Z,54.85
2023-04-01T18:03:37.618Z,57.15
2023-04-01T18:09:45.593Z,68.45
2023-04-01T18:15:28.457Z,70.35
2023-04-01T18:21:20.166Z,66.25
2023-04-01T18:26:52.732Z,64.53
2023-04-01T18:32:48.303Z,64.01
2023-04-01T18:38:39.532Z,61.59
2023-04-01T18:44:35.969Z,62.29
2023-04-01T18:50:18.541Z,61.09
2023-04-01T18:55:57.216Z,60.98
2023-04-01T19:01:47.310Z,61.00
2023-04-01T19:07:29.965Z,60.55
2023-04-01T19:13:14.776Z,60.58
2023-04-01T19:19:04.299Z,59.83
2023-04-01T19:24:55.340Z,53.36
2023-04-01T19:30:48.479Z,53.62
2023-04-01T19:36:25.906Z,58.88
2023-04-01T19:42:04.884Z,67.97
2023-04-01T19:47:59.418Z,67.90
2023-04-01T19:53:37.845Z,66.09
2023-04-01T19:59:15.406Z,64.64
2023-04-01T20:04:49.762Z,63.41
2023-04-01T20:10:44.925Z,62.99
2023-04-01T20:16:12.153Z,62.63
2023-04-01T20:21:39.860Z,62.22
2023-04-01T20:27:34.777Z,61.83
2023-04-01T20:33:17.313Z,61.26
2023-04-01T20:39:12.666Z,61.36
2023-04-01T20:44:49.848Z,61.32
2023-04-01T20:50:37.637Z,60.87
2023-04-01T20:56:49.552Z,60.56
2023-04-01T21:02:31.053Z,60.04
2023-04-01T21:08:42.165Z,54.11
2023-04-01T21:14:32.926Z,57.31
2023-04-01T21:20:27.854Z,67.19
2023-04-01T21:26:24.037Z,67.10
2023-04-01T21:32:07.500Z,64.55
2023-04-01T21:37:55.871Z,64.36
2023-04-01T21:43:40.269Z,62.47
2023-04-01T21:49:31.726Z,61.48
2023-04-01T21:55:08.787Z,61.05
2023-04-01T22:00:51.015Z,60.99
2023-04-01T22:06:40.143Z,61.14
2023-04-01T22:12:42.145Z,60.80
2023-04-01T22:18:23.461Z,60.64
2023-04-01T22:24:12.976Z,60.42
2023-04-01T22:29:48.529Z,60.32
2023-04-01T22:35:45.754Z,60.34
2023-04-01T22:41:43.040Z,60.39
2023-04-01T22:47:21.604Z,60.41
2023-04-01T22:52:54.149Z,60.55
2023-04-01T22:58:35.502Z,57.72
2023-04-01T23:04:05.047Z,58.52
2023-04-01T23:09:34.641Z,65.70
2023-04-01T23:15:03.469Z,66.46
2023-04-01T23:20:52.179Z,64.66
2023-04-01T23:26:41.680Z,62.62
2023-04-01T23:32:06.024Z,62.25
2023-04-01T23:37:34.965Z,61.65
2023-04-01T23:42:59.277Z,61.06
2023-04-01T23:48:30.760Z,60.71
2023-04-01T23:54:20.428Z,60.78
2023-04-01T23:59:45.174Z,60.82
